sensor_id;sensor_type;location;lat;lon;timestamp;P1;durP1;ratioP1;P2;durP2;ratioP2
51146;SDS011;37207;53.060;18.726;2024-02-23T00:01:44;15.50;;;13.80;;
51146;SDS011;37207;53.060;18.726;2024-02-23T00:04:11;14.80;;;13.30;;
51146;SDS011;37207;53.060;18.726;2024-02-23T00:06:38;15.10;;;13.90;;
51146;SDS011;37207;53.060;18.726;2024-02-23T00:09:04;15.70;;;14.40;;
51146;SDS011;37207;53.060;18.726;2024-02-23T00:11:31;15.40;;;13.90;;
51146;SDS011;37207;53.060;18.726;2024-02-23T00:14:06;15.90;;;14.40;;
51146;SDS011;37207;53.060;18.726;2024-02-23T00:16:37;15.20;;;14.00;;
51146;SDS011;37207;53.060;18.726;2024-02-23T00:19:07;16.10;;;14.70;;
51146;SDS011;37207;53.060;18.726;2024-02-23T00:21:36;16.30;;;14.90;;
51146;SDS011;37207;53.060;18.726;2024-02-23T00:24:03;5.60;;;4.30;;
51146;SDS011;37207;53.060;18.726;2024-02-23T00:26:30;17.00;;;15.30;;
51146;SDS011;37207;53.060;18.726;2024-02-23T00:28:56;17.10;;;15.60;;
51146;SDS011;37207;53.060;18.726;2024-02-23T00:31:23;12.50;;;6.70;;
51146;SDS011;37207;53.060;18.726;2024-02-23T00:33:50;15.90;;;14.70;;
51146;SDS011;37207;53.060;18.726;2024-02-23T00:36:16;15.70;;;14.40;;
51146;SDS011;37207;53.060;18.726;2024-02-23T00:38:43;15.00;;;13.60;;
51146;SDS011;37207;53.060;18.726;2024-02-23T00:41:09;16.10;;;14.70;;
51146;SDS011;37207;53.060;18.726;2024-02-23T00:43:39;10.10;;;6.30;;
51146;SDS011;37207;53.060;18.726;2024-02-23T00:46:07;14.90;;;13.90;;
51146;SDS011;37207;53.060;18.726;2024-02-23T00:48:34;9.00;;;7.10;;
51146;SDS011;37207;53.060;18.726;2024-02-23T00:51:01;16.30;;;15.00;;
51146;SDS011;37207;53.060;18.726;2024-02-23T00:53:30;16.00;;;14.60;;
51146;SDS011;37207;53.060;18.726;2024-02-23T00:55:58;12.10;;;7.10;;
51146;SDS011;37207;53.060;18.726;2024-02-23T00:58:25;15.10;;;13.90;;
51146;SDS011;37207;53.060;18.726;2024-02-23T01:00:52;15.40;;;13.80;;
51146;SDS011;37207;53.060;18.726;2024-02-23T01:03:19;14.80;;;13.60;;
51146;SDS011;37207;53.060;18.726;2024-02-23T01:05:45;14.80;;;13.70;;
51146;SDS011;37207;53.060;18.726;2024-02-23T01:08:12;14.60;;;13.30;;
51146;SDS011;37207;53.060;18.726;2024-02-23T01:10:39;14.70;;;13.50;;
51146;SDS011;37207;53.060;18.726;2024-02-23T01:13:05;14.60;;;13.40;;
51146;SDS011;37207;53.060;18.726;2024-02-23T01:15:32;14.60;;;13.60;;
51146;SDS011;37207;53.060;18.726;2024-02-23T01:17:58;14.30;;;13.20;;
51146;SDS011;37207;53.060;18.726;2024-02-23T01:20:25;8.90;;;6.30;;
51146;SDS011;37207;53.060;18.726;2024-02-23T01:22:52;15.10;;;13.60;;
51146;SDS011;37207;53.060;18.726;2024-02-23T01:25:18;14.50;;;13.30;;
51146;SDS011;37207;53.060;18.726;2024-02-23T01:27:45;15.60;;;14.10;;
51146;SDS011;37207;53.060;18.726;2024-02-23T01:30:12;15.00;;;13.80;;
51146;SDS011;37207;53.060;18.726;2024-02-23T01:32:39;5.40;;;4.90;;
51146;SDS011;37207;53.060;18.726;2024-02-23T01:35:05;14.20;;;13.10;;
51146;SDS011;37207;53.060;18.726;2024-02-23T01:37:34;14.10;;;12.90;;
51146;SDS011;37207;53.060;18.726;2024-02-23T01:40:01;8.00;;;5.00;;
51146;SDS011;37207;53.060;18.726;2024-02-23T01:42:27;9.30;;;6.10;;
51146;SDS011;37207;53.060;18.726;2024-02-23T01:44:54;14.30;;;13.20;;
51146;SDS011;37207;53.060;18.726;2024-02-23T01:47:23;7.50;;;4.60;;
51146;SDS011;37207;53.060;18.726;2024-02-23T01:49:51;14.30;;;13.30;;
51146;SDS011;37207;53.060;18.726;2024-02-23T01:52:18;14.10;;;13.00;;
51146;SDS011;37207;53.060;18.726;2024-02-23T01:54:45;15.10;;;13.90;;
51146;SDS011;37207;53.060;18.726;2024-02-23T01:57:12;7.50;;;4.50;;
51146;SDS011;37207;53.060;18.726;2024-02-23T01:59:40;13.90;;;12.80;;
51146;SDS011;37207;53.060;18.726;2024-02-23T02:02:07;12.90;;;11.80;;
51146;SDS011;37207;53.060;18.726;2024-02-23T02:04:34;13.20;;;12.30;;
51146;SDS011;37207;53.060;18.726;2024-02-23T02:07:01;13.70;;;12.60;;
51146;SDS011;37207;53.060;18.726;2024-02-23T02:09:28;14.00;;;12.90;;
51146;SDS011;37207;53.060;18.726;2024-02-23T02:11:54;13.20;;;12.20;;
51146;SDS011;37207;53.060;18.726;2024-02-23T02:14:21;13.50;;;12.40;;
51146;SDS011;37207;53.060;18.726;2024-02-23T02:16:48;13.40;;;12.50;;
51146;SDS011;37207;53.060;18.726;2024-02-23T02:19:14;13.50;;;12.50;;
51146;SDS011;37207;53.060;18.726;2024-02-23T02:21:41;5.20;;;3.50;;
51146;SDS011;37207;53.060;18.726;2024-02-23T02:24:07;13.90;;;12.70;;
51146;SDS011;37207;53.060;18.726;2024-02-23T02:26:35;14.10;;;13.10;;
51146;SDS011;37207;53.060;18.726;2024-02-23T02:29:02;14.00;;;12.80;;
51146;SDS011;37207;53.060;18.726;2024-02-23T02:31:30;5.90;;;4.20;;
51146;SDS011;37207;53.060;18.726;2024-02-23T02:34:03;13.80;;;12.90;;
51146;SDS011;37207;53.060;18.726;2024-02-23T02:36:30;14.00;;;13.00;;
51146;SDS011;37207;53.060;18.726;2024-02-23T02:38:57;14.90;;;13.80;;
51146;SDS011;37207;53.060;18.726;2024-02-23T02:41:24;13.50;;;12.40;;
51146;SDS011;37207;53.060;18.726;2024-02-23T02:43:55;4.00;;;3.60;;
51146;SDS011;37207;53.060;18.726;2024-02-23T02:46:22;7.80;;;5.60;;
51146;SDS011;37207;53.060;18.726;2024-02-23T02:48:49;14.40;;;13.40;;
51146;SDS011;37207;53.060;18.726;2024-02-23T02:51:15;15.20;;;13.60;;
51146;SDS011;37207;53.060;18.726;2024-02-23T02:53:42;14.50;;;13.60;;
51146;SDS011;37207;53.060;18.726;2024-02-23T02:56:08;14.00;;;13.10;;
51146;SDS011;37207;53.060;18.726;2024-02-23T02:58:35;6.80;;;5.20;;
51146;SDS011;37207;53.060;18.726;2024-02-23T03:01:01;14.30;;;13.40;;
51146;SDS011;37207;53.060;18.726;2024-02-23T03:03:31;7.60;;;4.90;;
51146;SDS011;37207;53.060;18.726;2024-02-23T03:05:57;13.90;;;13.00;;
51146;SDS011;37207;53.060;18.726;2024-02-23T03:08:24;14.50;;;13.10;;
51146;SDS011;37207;53.060;18.726;2024-02-23T03:10:51;5.60;;;5.10;;
51146;SDS011;37207;53.060;18.726;2024-02-23T03:13:18;14.90;;;13.70;;
51146;SDS011;37207;53.060;18.726;2024-02-23T03:15:44;5.80;;;6.20;;
51146;SDS011;37207;53.060;18.726;2024-02-23T03:18:11;5.70;;;5.10;;
51146;SDS011;37207;53.060;18.726;2024-02-23T03:20:37;5.60;;;5.20;;
51146;SDS011;37207;53.060;18.726;2024-02-23T03:23:04;14.80;;;13.80;;
51146;SDS011;37207;53.060;18.726;2024-02-23T03:25:30;15.70;;;14.50;;
51146;SDS011;37207;53.060;18.726;2024-02-23T03:27:57;7.10;;;6.30;;
51146;SDS011;37207;53.060;18.726;2024-02-23T03:30:24;6.70;;;5.70;;
51146;SDS011;37207;53.060;18.726;2024-02-23T03:32:50;15.10;;;13.90;;
51146;SDS011;37207;53.060;18.726;2024-02-23T03:35:17;15.50;;;14.30;;
51146;SDS011;37207;53.060;18.726;2024-02-23T03:37:43;15.80;;;14.70;;
51146;SDS011;37207;53.060;18.726;2024-02-23T03:40:10;15.50;;;14.40;;
51146;SDS011;37207;53.060;18.726;2024-02-23T03:42:37;13.90;;;13.10;;
51146;SDS011;37207;53.060;18.726;2024-02-23T03:45:04;14.00;;;13.10;;
51146;SDS011;37207;53.060;18.726;2024-02-23T03:47:31;14.70;;;13.60;;
51146;SDS011;37207;53.060;18.726;2024-02-23T03:49:58;14.30;;;13.20;;
51146;SDS011;37207;53.060;18.726;2024-02-23T03:52:25;14.30;;;13.20;;
51146;SDS011;37207;53.060;18.726;2024-02-23T03:54:51;13.80;;;12.90;;
51146;SDS011;37207;53.060;18.726;2024-02-23T03:57:20;14.10;;;13.20;;
51146;SDS011;37207;53.060;18.726;2024-02-23T03:59:53;6.60;;;5.30;;
51146;SDS011;37207;53.060;18.726;2024-02-23T04:02:20;12.90;;;12.20;;
51146;SDS011;37207;53.060;18.726;2024-02-23T04:04:48;13.70;;;12.70;;
51146;SDS011;37207;53.060;18.726;2024-02-23T04:07:14;7.40;;;5.70;;
51146;SDS011;37207;53.060;18.726;2024-02-23T04:09:41;13.20;;;12.30;;
51146;SDS011;37207;53.060;18.726;2024-02-23T04:12:08;13.40;;;12.40;;
51146;SDS011;37207;53.060;18.726;2024-02-23T04:14:34;9.70;;;4.90;;
51146;SDS011;37207;53.060;18.726;2024-02-23T04:17:03;12.90;;;12.00;;
51146;SDS011;37207;53.060;18.726;2024-02-23T04:19:30;12.00;;;11.30;;
51146;SDS011;37207;53.060;18.726;2024-02-23T04:21:56;6.80;;;4.00;;
51146;SDS011;37207;53.060;18.726;2024-02-23T04:24:23;4.80;;;4.30;;
51146;SDS011;37207;53.060;18.726;2024-02-23T04:26:49;11.50;;;10.80;;
51146;SDS011;37207;53.060;18.726;2024-02-23T04:29:16;4.80;;;4.40;;
51146;SDS011;37207;53.060;18.726;2024-02-23T04:31:43;11.10;;;10.40;;
51146;SDS011;37207;53.060;18.726;2024-02-23T04:34:09;10.90;;;10.30;;
51146;SDS011;37207;53.060;18.726;2024-02-23T04:36:36;10.80;;;10.10;;
51146;SDS011;37207;53.060;18.726;2024-02-23T04:39:03;9.90;;;9.30;;
51146;SDS011;37207;53.060;18.726;2024-02-23T04:41:30;3.60;;;3.30;;
51146;SDS011;37207;53.060;18.726;2024-02-23T04:43:57;9.70;;;9.10;;
51146;SDS011;37207;53.060;18.726;2024-02-23T04:46:26;11.70;;;11.00;;
51146;SDS011;37207;53.060;18.726;2024-02-23T04:48:53;14.20;;;13.20;;
51146;SDS011;37207;53.060;18.726;2024-02-23T04:51:20;13.80;;;12.70;;
51146;SDS011;37207;53.060;18.726;2024-02-23T04:53:49;13.30;;;12.30;;
51146;SDS011;37207;53.060;18.726;2024-02-23T04:56:16;12.80;;;11.80;;
51146;SDS011;37207;53.060;18.726;2024-02-23T04:58:43;11.00;;;10.20;;
51146;SDS011;37207;53.060;18.726;2024-02-23T05:01:10;11.00;;;10.20;;
51146;SDS011;37207;53.060;18.726;2024-02-23T05:03:37;4.10;;;3.70;;
51146;SDS011;37207;53.060;18.726;2024-02-23T05:06:04;9.40;;;8.90;;
51146;SDS011;37207;53.060;18.726;2024-02-23T05:08:31;4.60;;;4.20;;
51146;SDS011;37207;53.060;18.726;2024-02-23T05:10:57;6.00;;;4.60;;
51146;SDS011;37207;53.060;18.726;2024-02-23T05:13:24;8.60;;;8.10;;
51146;SDS011;37207;53.060;18.726;2024-02-23T05:15:50;7.50;;;7.10;;
51146;SDS011;37207;53.060;18.726;2024-02-23T05:18:17;8.50;;;7.80;;
51146;SDS011;37207;53.060;18.726;2024-02-23T05:20:44;8.30;;;7.70;;
51146;SDS011;37207;53.060;18.726;2024-02-23T05:23:10;2.80;;;2.60;;
51146;SDS011;37207;53.060;18.726;2024-02-23T05:25:37;8.90;;;8.30;;
51146;SDS011;37207;53.060;18.726;2024-02-23T05:28:04;10.30;;;9.30;;
51146;SDS011;37207;53.060;18.726;2024-02-23T05:30:30;9.20;;;8.40;;
51146;SDS011;37207;53.060;18.726;2024-02-23T05:32:58;11.80;;;10.80;;
51146;SDS011;37207;53.060;18.726;2024-02-23T05:35:25;9.10;;;8.20;;
51146;SDS011;37207;53.060;18.726;2024-02-23T05:37:52;4.50;;;3.40;;
51146;SDS011;37207;53.060;18.726;2024-02-23T05:40:19;5.40;;;4.90;;
51146;SDS011;37207;53.060;18.726;2024-02-23T05:42:46;2.60;;;2.40;;
51146;SDS011;37207;53.060;18.726;2024-02-23T05:45:12;2.50;;;2.30;;
51146;SDS011;37207;53.060;18.726;2024-02-23T05:47:39;4.90;;;4.60;;
51146;SDS011;37207;53.060;18.726;2024-02-23T05:50:07;4.50;;;4.20;;
51146;SDS011;37207;53.060;18.726;2024-02-23T05:52:37;5.80;;;5.40;;
51146;SDS011;37207;53.060;18.726;2024-02-23T05:55:05;5.90;;;5.50;;
51146;SDS011;37207;53.060;18.726;2024-02-23T05:57:32;7.00;;;5.60;;
51146;SDS011;37207;53.060;18.726;2024-02-23T05:59:59;2.40;;;2.20;;
51146;SDS011;37207;53.060;18.726;2024-02-23T06:02:25;3.00;;;2.00;;
51146;SDS011;37207;53.060;18.726;2024-02-23T06:04:52;3.40;;;2.20;;
51146;SDS011;37207;53.060;18.726;2024-02-23T06:07:19;16.80;;;15.20;;
51146;SDS011;37207;53.060;18.726;2024-02-23T06:12:14;10.50;;;9.40;;
51146;SDS011;37207;53.060;18.726;2024-02-23T06:14:41;5.40;;;5.00;;
51146;SDS011;37207;53.060;18.726;2024-02-23T06:17:07;1.30;;;1.20;;
51146;SDS011;37207;53.060;18.726;2024-02-23T06:19:34;5.10;;;4.70;;
51146;SDS011;37207;53.060;18.726;2024-02-23T06:22:01;5.40;;;5.00;;
51146;SDS011;37207;53.060;18.726;2024-02-23T06:24:28;6.80;;;5.70;;
51146;SDS011;37207;53.060;18.726;2024-02-23T06:26:54;3.80;;;2.70;;
51146;SDS011;37207;53.060;18.726;2024-02-23T06:29:21;11.60;;;10.60;;
51146;SDS011;37207;53.060;18.726;2024-02-23T06:31:47;7.50;;;6.30;;
51146;SDS011;37207;53.060;18.726;2024-02-23T06:34:15;9.40;;;7.40;;
51146;SDS011;37207;53.060;18.726;2024-02-23T06:36:44;6.90;;;6.30;;
51146;SDS011;37207;53.060;18.726;2024-02-23T06:39:11;5.10;;;4.50;;
51146;SDS011;37207;53.060;18.726;2024-02-23T06:41:38;7.60;;;4.10;;
51146;SDS011;37207;53.060;18.726;2024-02-23T06:44:07;8.70;;;2.80;;
51146;SDS011;37207;53.060;18.726;2024-02-23T06:46:34;5.80;;;5.30;;
51146;SDS011;37207;53.060;18.726;2024-02-23T06:49:00;6.70;;;5.40;;
51146;SDS011;37207;53.060;18.726;2024-02-23T06:51:27;6.10;;;5.50;;
51146;SDS011;37207;53.060;18.726;2024-02-23T06:53:54;6.20;;;5.60;;
51146;SDS011;37207;53.060;18.726;2024-02-23T06:56:21;6.70;;;2.60;;
51146;SDS011;37207;53.060;18.726;2024-02-23T06:58:47;27.30;;;21.30;;
51146;SDS011;37207;53.060;18.726;2024-02-23T07:01:14;8.10;;;7.30;;
51146;SDS011;37207;53.060;18.726;2024-02-23T07:03:41;8.20;;;6.40;;
51146;SDS011;37207;53.060;18.726;2024-02-23T07:06:09;8.50;;;7.80;;
51146;SDS011;37207;53.060;18.726;2024-02-23T07:08:37;16.50;;;13.70;;
51146;SDS011;37207;53.060;18.726;2024-02-23T07:11:03;7.30;;;6.80;;
51146;SDS011;37207;53.060;18.726;2024-02-23T07:13:30;5.60;;;5.10;;
51146;SDS011;37207;53.060;18.726;2024-02-23T07:15:58;7.20;;;5.50;;
51146;SDS011;37207;53.060;18.726;2024-02-23T07:18:28;6.80;;;5.60;;
51146;SDS011;37207;53.060;18.726;2024-02-23T07:20:55;10.60;;;9.40;;
51146;SDS011;37207;53.060;18.726;2024-02-23T07:23:21;5.80;;;4.20;;
51146;SDS011;37207;53.060;18.726;2024-02-23T07:25:49;9.60;;;8.70;;
51146;SDS011;37207;53.060;18.726;2024-02-23T07:28:17;6.00;;;3.90;;
51146;SDS011;37207;53.060;18.726;2024-02-23T07:30:46;11.10;;;9.70;;
51146;SDS011;37207;53.060;18.726;2024-02-23T07:33:13;9.50;;;8.70;;
51146;SDS011;37207;53.060;18.726;2024-02-23T07:35:40;4.70;;;3.40;;
51146;SDS011;37207;53.060;18.726;2024-02-23T07:38:06;8.40;;;7.70;;
51146;SDS011;37207;53.060;18.726;2024-02-23T07:40:33;7.40;;;6.70;;
51146;SDS011;37207;53.060;18.726;2024-02-23T07:43:00;6.40;;;5.90;;
51146;SDS011;37207;53.060;18.726;2024-02-23T07:45:26;7.90;;;7.00;;
51146;SDS011;37207;53.060;18.726;2024-02-23T07:47:53;8.60;;;7.00;;
51146;SDS011;37207;53.060;18.726;2024-02-23T07:50:20;12.20;;;11.10;;
51146;SDS011;37207;53.060;18.726;2024-02-23T07:52:46;32.30;;;26.70;;
51146;SDS011;37207;53.060;18.726;2024-02-23T07:55:13;17.80;;;10.70;;
51146;SDS011;37207;53.060;18.726;2024-02-23T07:57:39;25.20;;;22.70;;
51146;SDS011;37207;53.060;18.726;2024-02-23T08:00:06;29.70;;;22.80;;
51146;SDS011;37207;53.060;18.726;2024-02-23T08:02:42;28.60;;;22.30;;
51146;SDS011;37207;53.060;18.726;2024-02-23T08:05:08;24.30;;;20.50;;
51146;SDS011;37207;53.060;18.726;2024-02-23T08:07:36;62.50;;;38.10;;
51146;SDS011;37207;53.060;18.726;2024-02-23T08:10:03;85.50;;;50.20;;
51146;SDS011;37207;53.060;18.726;2024-02-23T08:12:31;66.10;;;38.20;;
51146;SDS011;37207;53.060;18.726;2024-02-23T08:14:57;24.90;;;16.90;;
51146;SDS011;37207;53.060;18.726;2024-02-23T08:17:24;17.40;;;8.40;;
51146;SDS011;37207;53.060;18.726;2024-02-23T08:19:52;54.50;;;30.60;;
51146;SDS011;37207;53.060;18.726;2024-02-23T08:22:18;44.50;;;25.90;;
51146;SDS011;37207;53.060;18.726;2024-02-23T08:24:45;33.60;;;22.30;;
51146;SDS011;37207;53.060;18.726;2024-02-23T08:27:12;16.90;;;15.10;;
51146;SDS011;37207;53.060;18.726;2024-02-23T08:29:39;22.50;;;20.40;;
51146;SDS011;37207;53.060;18.726;2024-02-23T08:32:05;15.20;;;11.60;;
51146;SDS011;37207;53.060;18.726;2024-02-23T08:34:32;3.50;;;2.90;;
51146;SDS011;37207;53.060;18.726;2024-02-23T08:37:00;5.30;;;4.90;;
51146;SDS011;37207;53.060;18.726;2024-02-23T08:39:28;4.60;;;3.70;;
51146;SDS011;37207;53.060;18.726;2024-02-23T08:41:55;3.70;;;3.40;;
51146;SDS011;37207;53.060;18.726;2024-02-23T08:44:22;5.10;;;3.70;;
51146;SDS011;37207;53.060;18.726;2024-02-23T08:46:48;4.50;;;3.40;;
51146;SDS011;37207;53.060;18.726;2024-02-23T08:49:15;6.30;;;5.80;;
51146;SDS011;37207;53.060;18.726;2024-02-23T08:51:41;4.20;;;3.90;;
51146;SDS011;37207;53.060;18.726;2024-02-23T08:54:08;4.40;;;2.80;;
51146;SDS011;37207;53.060;18.726;2024-02-23T08:56:39;3.10;;;2.10;;
51146;SDS011;37207;53.060;18.726;2024-02-23T08:59:08;1.50;;;1.40;;
51146;SDS011;37207;53.060;18.726;2024-02-23T09:01:35;3.80;;;3.30;;
51146;SDS011;37207;53.060;18.726;2024-02-23T09:04:02;6.30;;;5.80;;
51146;SDS011;37207;53.060;18.726;2024-02-23T09:06:29;7.00;;;6.30;;
51146;SDS011;37207;53.060;18.726;2024-02-23T09:08:55;5.60;;;5.00;;
51146;SDS011;37207;53.060;18.726;2024-02-23T09:11:22;11.30;;;1.10;;
51146;SDS011;37207;53.060;18.726;2024-02-23T09:13:50;2.90;;;2.70;;
51146;SDS011;37207;53.060;18.726;2024-02-23T09:18:49;4.30;;;3.80;;
51146;SDS011;37207;53.060;18.726;2024-02-23T09:21:17;3.80;;;3.40;;
51146;SDS011;37207;53.060;18.726;2024-02-23T09:23:47;8.00;;;7.30;;
51146;SDS011;37207;53.060;18.726;2024-02-23T09:26:14;4.10;;;3.70;;
51146;SDS011;37207;53.060;18.726;2024-02-23T09:28:40;2.70;;;2.50;;
51146;SDS011;37207;53.060;18.726;2024-02-23T09:31:08;5.10;;;3.80;;
51146;SDS011;37207;53.060;18.726;2024-02-23T09:33:35;4.90;;;4.50;;
51146;SDS011;37207;53.060;18.726;2024-02-23T09:36:01;1.70;;;1.20;;
51146;SDS011;37207;53.060;18.726;2024-02-23T09:38:28;2.90;;;2.40;;
51146;SDS011;37207;53.060;18.726;2024-02-23T09:40:55;3.40;;;3.10;;
51146;SDS011;37207;53.060;18.726;2024-02-23T09:43:22;3.10;;;1.30;;
51146;SDS011;37207;53.060;18.726;2024-02-23T09:45:50;2.40;;;2.00;;
51146;SDS011;37207;53.060;18.726;2024-02-23T09:48:18;5.10;;;4.30;;
51146;SDS011;37207;53.060;18.726;2024-02-23T09:50:46;3.20;;;2.60;;
51146;SDS011;37207;53.060;18.726;2024-02-23T09:53:14;7.30;;;5.70;;
51146;SDS011;37207;53.060;18.726;2024-02-23T09:55:41;13.70;;;12.30;;
51146;SDS011;37207;53.060;18.726;2024-02-23T09:58:10;47.40;;;16.30;;
51146;SDS011;37207;53.060;18.726;2024-02-23T10:00:43;46.10;;;30.10;;
51146;SDS011;37207;53.060;18.726;2024-02-23T10:03:10;36.30;;;28.20;;
51146;SDS011;37207;53.060;18.726;2024-02-23T10:05:36;46.40;;;30.20;;
51146;SDS011;37207;53.060;18.726;2024-02-23T10:08:05;15.80;;;7.70;;
51146;SDS011;37207;53.060;18.726;2024-02-23T10:10:35;10.30;;;9.50;;
51146;SDS011;37207;53.060;18.726;2024-02-23T10:13:01;7.90;;;7.30;;
51146;SDS011;37207;53.060;18.726;2024-02-23T10:15:30;29.30;;;25.60;;
51146;SDS011;37207;53.060;18.726;2024-02-23T10:17:57;63.20;;;47.40;;
51146;SDS011;37207;53.060;18.726;2024-02-23T10:20:24;47.60;;;34.10;;
51146;SDS011;37207;53.060;18.726;2024-02-23T10:22:50;47.60;;;28.30;;
51146;SDS011;37207;53.060;18.726;2024-02-23T10:25:20;56.30;;;34.40;;
51146;SDS011;37207;53.060;18.726;2024-02-23T10:27:47;37.80;;;23.60;;
51146;SDS011;37207;53.060;18.726;2024-02-23T10:30:13;50.20;;;29.60;;
51146;SDS011;37207;53.060;18.726;2024-02-23T10:32:43;44.20;;;30.00;;
51146;SDS011;37207;53.060;18.726;2024-02-23T10:35:15;21.60;;;17.90;;
51146;SDS011;37207;53.060;18.726;2024-02-23T10:37:48;26.80;;;18.90;;
51146;SDS011;37207;53.060;18.726;2024-02-23T10:40:18;14.70;;;10.10;;
51146;SDS011;37207;53.060;18.726;2024-02-23T10:42:46;25.20;;;6.50;;
51146;SDS011;37207;53.060;18.726;2024-02-23T10:45:15;20.20;;;12.20;;
51146;SDS011;37207;53.060;18.726;2024-02-23T10:50:10;30.60;;;22.20;;
51146;SDS011;37207;53.060;18.726;2024-02-23T10:52:41;6.50;;;5.40;;
51146;SDS011;37207;53.060;18.726;2024-02-23T10:55:08;7.10;;;4.70;;
51146;SDS011;37207;53.060;18.726;2024-02-23T10:57:36;7.60;;;5.90;;
51146;SDS011;37207;53.060;18.726;2024-02-23T11:00:03;8.30;;;5.70;;
51146;SDS011;37207;53.060;18.726;2024-02-23T11:02:33;5.90;;;5.20;;
51146;SDS011;37207;53.060;18.726;2024-02-23T11:05:02;9.10;;;7.10;;
51146;SDS011;37207;53.060;18.726;2024-02-23T11:07:30;48.70;;;17.30;;
51146;SDS011;37207;53.060;18.726;2024-02-23T11:10:00;6.80;;;4.90;;
51146;SDS011;37207;53.060;18.726;2024-02-23T11:12:29;16.30;;;10.20;;
51146;SDS011;37207;53.060;18.726;2024-02-23T11:14:56;11.00;;;6.30;;
51146;SDS011;37207;53.060;18.726;2024-02-23T11:17:27;7.20;;;6.50;;
51146;SDS011;37207;53.060;18.726;2024-02-23T11:19:55;78.70;;;49.20;;
51146;SDS011;37207;53.060;18.726;2024-02-23T11:22:23;15.50;;;14.30;;
51146;SDS011;37207;53.060;18.726;2024-02-23T11:24:52;13.00;;;5.60;;
51146;SDS011;37207;53.060;18.726;2024-02-23T11:27:19;9.80;;;8.90;;
51146;SDS011;37207;53.060;18.726;2024-02-23T11:29:46;6.00;;;5.40;;
51146;SDS011;37207;53.060;18.726;2024-02-23T11:32:16;6.70;;;5.80;;
51146;SDS011;37207;53.060;18.726;2024-02-23T11:34:55;5.90;;;2.40;;
51146;SDS011;37207;53.060;18.726;2024-02-23T11:37:23;6.30;;;2.00;;
51146;SDS011;37207;53.060;18.726;2024-02-23T11:39:49;2.50;;;1.40;;
51146;SDS011;37207;53.060;18.726;2024-02-23T11:42:16;2.00;;;1.30;;
51146;SDS011;37207;53.060;18.726;2024-02-23T11:44:44;2.40;;;1.40;;
51146;SDS011;37207;53.060;18.726;2024-02-23T11:47:11;3.20;;;2.50;;
51146;SDS011;37207;53.060;18.726;2024-02-23T11:49:37;5.60;;;3.30;;
51146;SDS011;37207;53.060;18.726;2024-02-23T11:52:04;5.20;;;4.60;;
51146;SDS011;37207;53.060;18.726;2024-02-23T11:54:30;4.60;;;4.00;;
51146;SDS011;37207;53.060;18.726;2024-02-23T11:56:57;6.70;;;5.90;;
51146;SDS011;37207;53.060;18.726;2024-02-23T11:59:24;8.80;;;7.50;;
51146;SDS011;37207;53.060;18.726;2024-02-23T12:01:51;17.50;;;13.40;;
51146;SDS011;37207;53.060;18.726;2024-02-23T12:04:18;11.60;;;10.10;;
51146;SDS011;37207;53.060;18.726;2024-02-23T12:06:44;5.50;;;3.90;;
51146;SDS011;37207;53.060;18.726;2024-02-23T12:09:12;3.50;;;3.00;;
51146;SDS011;37207;53.060;18.726;2024-02-23T12:11:40;3.50;;;2.10;;
51146;SDS011;37207;53.060;18.726;2024-02-23T12:14:07;10.30;;;9.20;;
51146;SDS011;37207;53.060;18.726;2024-02-23T12:16:35;3.00;;;2.70;;
51146;SDS011;37207;53.060;18.726;2024-02-23T12:19:02;4.00;;;3.30;;
51146;SDS011;37207;53.060;18.726;2024-02-23T12:21:29;10.00;;;8.90;;
51146;SDS011;37207;53.060;18.726;2024-02-23T12:23:56;10.00;;;9.10;;
51146;SDS011;37207;53.060;18.726;2024-02-23T12:26:23;10.70;;;9.70;;
51146;SDS011;37207;53.060;18.726;2024-02-23T12:28:49;9.90;;;8.70;;
51146;SDS011;37207;53.060;18.726;2024-02-23T12:31:16;9.80;;;4.80;;
51146;SDS011;37207;53.060;18.726;2024-02-23T12:33:51;4.80;;;3.10;;
51146;SDS011;37207;53.060;18.726;2024-02-23T12:36:17;15.90;;;10.90;;
51146;SDS011;37207;53.060;18.726;2024-02-23T12:38:44;15.40;;;13.20;;
51146;SDS011;37207;53.060;18.726;2024-02-23T12:41:11;12.80;;;10.80;;
51146;SDS011;37207;53.060;18.726;2024-02-23T12:43:38;11.00;;;9.80;;
51146;SDS011;37207;53.060;18.726;2024-02-23T12:46:04;20.50;;;15.60;;
51146;SDS011;37207;53.060;18.726;2024-02-23T12:48:33;11.50;;;8.30;;
51146;SDS011;37207;53.060;18.726;2024-02-23T12:50:59;10.70;;;8.40;;
51146;SDS011;37207;53.060;18.726;2024-02-23T12:56:07;1.50;;;1.30;;
51146;SDS011;37207;53.060;18.726;2024-02-23T12:58:38;2.20;;;1.60;;
51146;SDS011;37207;53.060;18.726;2024-02-23T13:01:06;3.20;;;1.40;;
51146;SDS011;37207;53.060;18.726;2024-02-23T13:03:35;3.70;;;2.70;;
51146;SDS011;37207;53.060;18.726;2024-02-23T13:06:03;8.50;;;7.70;;
51146;SDS011;37207;53.060;18.726;2024-02-23T13:08:31;15.70;;;14.20;;
51146;SDS011;37207;53.060;18.726;2024-02-23T13:10:57;19.20;;;10.40;;
51146;SDS011;37207;53.060;18.726;2024-02-23T13:13:24;33.10;;;21.90;;
51146;SDS011;37207;53.060;18.726;2024-02-23T13:15:51;8.90;;;8.10;;
51146;SDS011;37207;53.060;18.726;2024-02-23T13:18:19;5.80;;;5.20;;
51146;SDS011;37207;53.060;18.726;2024-02-23T13:20:46;5.10;;;3.70;;
51146;SDS011;37207;53.060;18.726;2024-02-23T13:23:13;7.60;;;4.70;;
51146;SDS011;37207;53.060;18.726;2024-02-23T13:25:42;4.30;;;3.90;;
51146;SDS011;37207;53.060;18.726;2024-02-23T13:28:09;4.70;;;4.20;;
51146;SDS011;37207;53.060;18.726;2024-02-23T13:30:36;8.50;;;7.80;;
51146;SDS011;37207;53.060;18.726;2024-02-23T13:33:03;15.40;;;12.50;;
51146;SDS011;37207;53.060;18.726;2024-02-23T13:35:32;24.90;;;18.30;;
51146;SDS011;37207;53.060;18.726;2024-02-23T13:37:59;19.90;;;14.70;;
51146;SDS011;37207;53.060;18.726;2024-02-23T13:40:26;11.00;;;10.00;;
51146;SDS011;37207;53.060;18.726;2024-02-23T13:42:52;39.80;;;19.60;;
51146;SDS011;37207;53.060;18.726;2024-02-23T13:45:19;15.70;;;13.90;;
51146;SDS011;37207;53.060;18.726;2024-02-23T13:48:02;18.70;;;15.70;;
51146;SDS011;37207;53.060;18.726;2024-02-23T13:50:31;9.10;;;7.70;;
51146;SDS011;37207;53.060;18.726;2024-02-23T13:52:59;35.70;;;14.20;;
51146;SDS011;37207;53.060;18.726;2024-02-23T13:55:25;51.90;;;28.40;;
51146;SDS011;37207;53.060;18.726;2024-02-23T13:57:52;112.30;;;87.70;;
51146;SDS011;37207;53.060;18.726;2024-02-23T14:00:19;119.20;;;58.20;;
51146;SDS011;37207;53.060;18.726;2024-02-23T14:02:47;203.40;;;78.80;;
51146;SDS011;37207;53.060;18.726;2024-02-23T14:05:14;164.00;;;64.60;;
51146;SDS011;37207;53.060;18.726;2024-02-23T14:07:41;88.50;;;36.20;;
51146;SDS011;37207;53.060;18.726;2024-02-23T14:10:09;49.20;;;23.80;;
51146;SDS011;37207;53.060;18.726;2024-02-23T14:12:36;176.70;;;79.20;;
51146;SDS011;37207;53.060;18.726;2024-02-23T14:15:03;97.90;;;46.80;;
51146;SDS011;37207;53.060;18.726;2024-02-23T14:17:31;141.30;;;66.60;;
51146;SDS011;37207;53.060;18.726;2024-02-23T14:19:58;66.60;;;36.00;;
51146;SDS011;37207;53.060;18.726;2024-02-23T14:22:24;116.90;;;58.40;;
51146;SDS011;37207;53.060;18.726;2024-02-23T14:24:51;133.30;;;68.60;;
51146;SDS011;37207;53.060;18.726;2024-02-23T14:27:18;58.70;;;33.60;;
51146;SDS011;37207;53.060;18.726;2024-02-23T14:29:45;105.60;;;58.20;;
51146;SDS011;37207;53.060;18.726;2024-02-23T14:32:16;96.40;;;56.60;;